Time;durP1;ratioP1;P1;durP2;ratioP2;P2;SDS_P1;SDS_P2;PMS_P1;PMS_P2;Temp;Humidity;BMP_temperature;BMP_pressure;BME280_temperature;BME280_humidity;BME280_pressure;Samples;Min_cycle;Max_cycle;Signal;HPM_P1;HPM_P2
2022/10/23 00:00:10;;;;;;;9.25;8.43;;;;;;;;;;2095927;28;20024;-73
2022/10/23 00:01:30;;;;;;;10.25;9.18;;;;;;;;;;2098241;28;20077;-72
2022/10/23 00:02:53;;;;;;;9.52;8.63;;;;;;;;;;2098765;28;20428;-72
2022/10/23 00:04:13;;;;;;;10.68;9.13;;;;;;;;;;2098870;28;20041;-71
2022/10/23 00:05:32;;;;;;;9.18;8.38;;;;;;;;;;2100245;28;20051;-71
2022/10/23 00:06:51;;;;;;;9.43;8.55;;;;;;;;;;2099232;28;20460;-71
2022/10/23 00:08:10;;;;;;;9.57;8.60;;;;;;;;;;2099691;28;20028;-71
2022/10/23 00:09:29;;;;;;;11.68;8.82;;;;;;;;;;2100701;28;20502;-72
2022/10/23 00:10:48;;;;;;;11.02;9.38;;;;;;;;;;2099467;28;20036;-72
2022/10/23 00:12:07;;;;;;;9.57;8.63;;;;;;;;;;2095971;28;20036;-72
2022/10/23 00:13:26;;;;;;;9.77;8.85;;;;;;;;;;2096834;28;20013;-72
2022/10/23 00:14:45;;;;;;;10.10;9.10;;;;;;;;;;2101262;28;20020;-72
2022/10/23 00:16:04;;;;;;;10.20;9.23;;;;;;;;;;2099378;28;20032;-73
2022/10/23 00:17:23;;;;;;;11.80;9.50;;;;;;;;;;2108215;28;20020;-71
2022/10/23 00:18:43;;;;;;;10.75;9.65;;;;;;;;;;2096843;28;20020;-71
2022/10/23 00:20:01;;;;;;;9.63;8.80;;;;;;;;;;2098121;28;20033;-71
2022/10/23 00:21:21;;;;;;;10.80;9.10;;;;;;;;;;2099376;28;20385;-71
2022/10/23 00:22:39;;;;;;;11.68;9.85;;;;;;;;;;2098633;28;20472;-71
2022/10/23 00:23:58;;;;;;;10.32;9.32;;;;;;;;;;2095540;28;20032;-71
2022/10/23 00:25:17;;;;;;;9.95;8.90;;;;;;;;;;2098211;28;20021;-72
2022/10/23 00:26:39;;;;;;;14.75;9.93;;;;;;;;;;2095013;28;20103;-71
2022/10/23 00:27:58;;;;;;;10.90;9.80;;;;;;;;;;2098776;28;20032;-72
2022/10/23 00:29:17;;;;;;;10.43;9.43;;;;;;;;;;2098988;28;20017;-72
2022/10/23 00:30:36;;;;;;;9.68;8.88;;;;;;;;;;2095146;28;20414;-71
2022/10/23 00:31:55;;;;;;;10.63;9.32;;;;;;;;;;2099124;28;20036;-72
2022/10/23 00:33:14;;;;;;;10.23;9.23;;;;;;;;;;2099984;28;20028;-71
2022/10/23 00:34:33;;;;;;;9.98;8.75;;;;;;;;;;2098883;28;20025;-71
2022/10/23 00:35:52;;;;;;;11.75;9.88;;;;;;;;;;2098420;28;20028;-71
2022/10/23 00:37:11;;;;;;;11.65;9.82;;;;;;;;;;2099089;28;20039;-71
2022/10/23 00:38:30;;;;;;;11.00;9.90;;;;;;;;;;2100144;28;20028;-71
2022/10/23 00:39:49;;;;;;;11.10;9.15;;;;;;;;;;2097653;28;20136;-71
2022/10/23 00:41:12;;;;;;;10.82;9.68;;;;;;;;;;2098443;28;20112;-71
2022/10/23 00:42:31;;;;;;;10.65;9.55;;;;;;;;;;2096827;28;20039;-71
2022/10/23 00:43:56;;;;;;;11.05;9.50;;;;;;;;;;2100173;28;20012;-71
2022/10/23 00:45:21;;;;;;;9.80;8.77;;;;;;;;;;2099270;28;20024;-71
2022/10/23 00:46:40;;;;;;;10.30;9.25;;;;;;;;;;2098787;28;20099;-72
2022/10/23 00:48:00;;;;;;;10.55;9.10;;;;;;;;;;2099852;28;20079;-71
2022/10/23 00:49:19;;;;;;;10.00;8.00;;;;;;;;;;2095903;28;20103;-72
2022/10/23 00:50:38;;;;;;;11.27;7.78;;;;;;;;;;2099109;28;20029;-72
2022/10/23 00:52:05;;;;;;;9.15;8.35;;;;;;;;;;2097911;28;20021;-73
2022/10/23 00:53:24;;;;;;;8.68;7.82;;;;;;;;;;2100523;28;20025;-72
2022/10/23 00:54:44;;;;;;;8.52;7.30;;;;;;;;;;2099270;28;20432;-71
2022/10/23 00:56:03;;;;;;;8.35;7.63;;;;;;;;;;2097124;28;20099;-71
2022/10/23 00:57:22;;;;;;;7.60;6.95;;;;;;;;;;2100267;28;20041;-72
2022/10/23 00:58:41;;;;;;;8.63;7.72;;;;;;;;;;2100320;28;20486;-71
2022/10/23 01:00:00;;;;;;;8.50;7.60;;;;;;;;;;2097403;28;20028;-72
2022/10/23 01:01:20;;;;;;;9.35;7.00;;;;;;;;;;2098764;28;20029;-73
2022/10/23 01:02:39;;;;;;;8.45;7.28;;;;;;;;;;2098725;28;20032;-72
2022/10/23 01:03:59;;;;;;;8.10;7.40;;;;;;;;;;2098014;28;21321;-72
2022/10/23 01:05:21;;;;;;;8.30;7.47;;;;;;;;;;2099978;28;20032;-72
2022/10/23 01:06:43;;;;;;;7.80;7.18;;;;;;;;;;2096834;28;20037;-72
2022/10/23 01:08:08;;;;;;;8.73;7.25;;;;;;;;;;2095353;28;20032;-72
2022/10/23 01:09:41;;;;;;;7.93;6.93;;;;;;;;;;2097779;28;20036;-73
2022/10/23 01:11:00;;;;;;;7.18;6.57;;;;;;;;;;2100974;28;20087;-72
2022/10/23 01:12:29;;;;;;;7.88;7.18;;;;;;;;;;2099603;28;20036;-72
2022/10/23 01:13:55;;;;;;;7.53;6.60;;;;;;;;;;2096888;28;20526;-73
2022/10/23 01:15:32;;;;;;;7.68;7.07;;;;;;;;;;2101670;28;20028;-72
2022/10/23 01:17:10;;;;;;;8.73;7.32;;;;;;;;;;2099029;28;20432;-72
2022/10/23 01:18:42;;;;;;;8.13;7.07;;;;;;;;;;2095402;28;20040;-73
2022/10/23 01:20:26;;;;;;;7.57;6.97;;;;;;;;;;2101725;28;20059;-72
2022/10/23 01:21:45;;;;;;;;;;;;;;;;;;2099037;28;20048;-73
2022/10/23 01:23:10;;;;;;;7.75;7.07;;;;;;;;;;2097079;28;19919;-73
2022/10/23 01:24:47;;;;;;;7.93;6.78;;;;;;;;;;2097778;28;20427;-72
2022/10/23 01:26:29;;;;;;;8.65;7.22;;;;;;;;;;2099137;28;20032;-72
2022/10/23 01:27:54;;;;;;;8.27;7.47;;;;;;;;;;2098007;28;20024;-73
2022/10/23 01:29:19;;;;;;;7.32;6.72;;;;;;;;;;2098790;28;20490;-72
2022/10/23 01:30:41;;;;;;;7.95;7.15;;;;;;;;;;2095558;28;20024;-73
2022/10/23 01:32:07;;;;;;;10.68;7.18;;;;;;;;;;2099322;28;20037;-73
2022/10/23 01:33:30;;;;;;;8.40;7.40;;;;;;;;;;2097814;28;20024;-72
2022/10/23 01:34:55;;;;;;;7.90;7.10;;;;;;;;;;2097942;28;20024;-72
2022/10/23 01:36:15;;;;;;;10.38;7.20;;;;;;;;;;2096424;28;20032;-73
2022/10/23 01:37:39;;;;;;;7.90;7.07;;;;;;;;;;2097086;28;20028;-72
2022/10/23 01:39:01;;;;;;;8.98;6.95;;;;;;;;;;2100410;28;20040;-72
2022/10/23 01:40:26;;;;;;;7.20;6.50;;;;;;;;;;2098581;28;20036;-72
2022/10/23 01:41:53;;;;;;;9.13;7.50;;;;;;;;;;2098567;28;20040;-76
2022/10/23 01:43:16;;;;;;;7.03;6.53;;;;;;;;;;2098793;28;20439;-72
2022/10/23 01:44:38;;;;;;;7.50;6.90;;;;;;;;;;2097927;28;20509;-72
2022/10/23 01:46:06;;;;;;;8.23;7.30;;;;;;;;;;2094208;28;20265;-72
2022/10/23 01:47:27;;;;;;;9.35;7.10;;;;;;;;;;2100477;28;20060;-73
2022/10/23 01:48:51;;;;;;;7.82;6.85;;;;;;;;;;2098946;28;20062;-76
2022/10/23 01:50:11;;;;;;;6.30;5.80;;;;;;;;;;2105621;28;20028;-73
2022/10/23 01:51:31;;;;;;;6.90;6.22;;;;;;;;;;2099607;28;20052;-73
2022/10/23 01:52:50;;;;;;;7.65;6.80;;;;;;;;;;2096644;28;20033;-73
2022/10/23 01:54:10;;;;;;;7.45;6.85;;;;;;;;;;2097501;28;20493;-74
2022/10/23 01:55:29;;;;;;;7.05;6.40;;;;;;;;;;2098268;28;20033;-71
2022/10/23 01:56:49;;;;;;;6.97;6.40;;;;;;;;;;2099562;28;20032;-71
2022/10/23 01:58:09;;;;;;;6.65;6.15;;;;;;;;;;2097875;28;20036;-72
2022/10/23 01:59:35;;;;;;;11.70;6.20;;;;;;;;;;2099552;28;20396;-72
2022/10/23 02:00:56;;;;;;;6.47;5.90;;;;;;;;;;2097144;28;20032;-72
2022/10/23 02:02:16;;;;;;;7.32;6.60;;;;;;;;;;2096942;28;20040;-71
2022/10/23 02:03:35;;;;;;;7.95;7.25;;;;;;;;;;2102170;28;21127;-73
2022/10/23 02:05:04;;;;;;;7.65;6.90;;;;;;;;;;2100732;28;20032;-71
2022/10/23 02:06:24;;;;;;;7.20;6.50;;;;;;;;;;2102412;28;20020;-71
2022/10/23 02:07:43;;;;;;;6.60;6.10;;;;;;;;;;2101387;28;20066;-73
2022/10/23 02:09:03;;;;;;;7.70;6.15;;;;;;;;;;2097599;28;20025;-72
2022/10/23 02:10:25;;;;;;;6.25;5.65;;;;;;;;;;2097903;28;20028;-71
2022/10/23 02:11:51;;;;;;;8.38;6.32;;;;;;;;;;2098834;28;20474;-75
2022/10/23 02:13:25;;;;;;;6.60;6.10;;;;;;;;;;2100125;28;20040;-71
2022/10/23 02:15:16;;;;;;;7.60;6.90;;;;;;;;;;2098053;28;20025;-71
2022/10/23 02:16:51;;;;;;;6.43;5.93;;;;;;;;;;2077888;28;20033;-72
2022/10/23 02:18:13;;;;;;;6.68;6.18;;;;;;;;;;2098802;28;20028;-74
2022/10/23 02:19:37;;;;;;;6.47;5.97;;;;;;;;;;2099528;28;20028;-72
2022/10/23 02:20:59;;;;;;;8.02;6.78;;;;;;;;;;2099870;28;20031;-71
2022/10/23 02:22:27;;;;;;;7.32;6.60;;;;;;;;;;2100042;28;20398;-71
2022/10/23 02:23:45;;;;;;;7.20;6.60;;;;;;;;;;2105090;28;20035;-74
2022/10/23 02:25:07;;;;;;;6.90;6.30;;;;;;;;;;2096929;28;20028;-71
2022/10/23 02:26:29;;;;;;;7.25;6.65;;;;;;;;;;2097682;28;20052;-71
2022/10/23 02:27:51;;;;;;;7.63;6.97;;;;;;;;;;2101247;28;20098;-71
2022/10/23 02:29:16;;;;;;;6.85;5.93;;;;;;;;;;2108169;28;20032;-72
2022/10/23 02:30:37;;;;;;;7.43;6.68;;;;;;;;;;2100356;28;21088;-71
2022/10/23 02:31:56;;;;;;;6.32;5.60;;;;;;;;;;2099759;28;20028;-71
2022/10/23 02:33:15;;;;;;;6.25;5.65;;;;;;;;;;2101343;28;20032;-71
2022/10/23 02:34:34;;;;;;;6.68;5.40;;;;;;;;;;2099880;28;20107;-73
2022/10/23 02:35:53;;;;;;;6.20;5.70;;;;;;;;;;2098417;28;20108;-71
2022/10/23 02:37:12;;;;;;;6.10;5.57;;;;;;;;;;2100871;28;20496;-71
2022/10/23 02:38:33;;;;;;;6.43;5.63;;;;;;;;;;2100578;28;20036;-71
2022/10/23 02:39:52;;;;;;;5.63;5.13;;;;;;;;;;2098026;28;20028;-71
2022/10/23 02:41:27;;;;;;;5.72;5.22;;;;;;;;;;2101079;28;20029;-72
2022/10/23 02:42:57;;;;;;;6.30;5.47;;;;;;;;;;2101531;28;20057;-71
2022/10/23 02:44:16;;;;;;;6.50;5.90;;;;;;;;;;2099494;28;20521;-71
2022/10/23 02:45:43;;;;;;;6.07;5.45;;;;;;;;;;2095874;28;20041;-71
2022/10/23 02:47:13;;;;;;;5.78;5.35;;;;;;;;;;2107930;28;20519;-70
2022/10/23 02:48:55;;;;;;;7.05;5.65;;;;;;;;;;2100788;28;20107;-71
2022/10/23 02:50:23;;;;;;;7.38;6.22;;;;;;;;;;2098019;28;20028;-72
2022/10/23 02:51:45;;;;;;;8.55;6.65;;;;;;;;;;2099632;28;20159;-72
2022/10/23 02:53:19;;;;;;;8.65;5.57;;;;;;;;;;2097045;28;20381;-71
2022/10/23 02:54:38;;;;;;;6.47;5.88;;;;;;;;;;2096720;28;20037;-71
2022/10/23 02:56:16;;;;;;;6.82;6.15;;;;;;;;;;2099935;28;20032;-71
2022/10/23 02:57:41;;;;;;;6.10;5.60;;;;;;;;;;2099562;28;20039;-72
2022/10/23 02:59:01;;;;;;;6.68;6.07;;;;;;;;;;2100704;28;20017;-73
2022/10/23 03:00:21;;;;;;;6.40;5.88;;;;;;;;;;2096413;28;20451;-71
2022/10/23 03:01:46;;;;;;;6.57;5.97;;;;;;;;;;2101644;28;20029;-71
2022/10/23 03:03:07;;;;;;;6.45;5.95;;;;;;;;;;2101112;28;20075;-71
2022/10/23 03:04:27;;;;;;;6.70;6.10;;;;;;;;;;2098522;28;21055;-71
2022/10/23 03:05:46;;;;;;;6.93;6.32;;;;;;;;;;2097307;28;20036;-71
2022/10/23 03:07:09;;;;;;;7.47;6.70;;;;;;;;;;2099622;28;20037;-72
2022/10/23 03:08:28;;;;;;;6.78;6.18;;;;;;;;;;2100195;28;20024;-73
2022/10/23 03:09:47;;;;;;;6.57;6.05;;;;;;;;;;2098212;28;20046;-72
2022/10/23 03:11:06;;;;;;;6.53;5.93;;;;;;;;;;2099775;28;20053;-74
2022/10/23 03:12:25;;;;;;;8.45;6.60;;;;;;;;;;2097432;28;20058;-71
2022/10/23 03:13:44;;;;;;;6.85;6.25;;;;;;;;;;2101015;28;20012;-74
2022/10/23 03:15:03;;;;;;;6.95;6.30;;;;;;;;;;2099113;28;20048;-73
2022/10/23 03:16:22;;;;;;;7.15;6.55;;;;;;;;;;2099123;28;20032;-71
2022/10/23 03:17:41;;;;;;;7.85;6.32;;;;;;;;;;2098774;28;20122;-71
2022/10/23 03:18:59;;;;;;;7.55;6.85;;;;;;;;;;2096541;28;20032;-74
2022/10/23 03:20:18;;;;;;;7.05;6.30;;;;;;;;;;2097048;28;20103;-71
2022/10/23 03:21:37;;;;;;;7.38;6.68;;;;;;;;;;2100258;28;20389;-72
2022/10/23 03:22:56;;;;;;;7.57;6.65;;;;;;;;;;2099118;28;20036;-71
2022/10/23 03:24:15;;;;;;;6.68;6.07;;;;;;;;;;2099569;28;20032;-72
2022/10/23 03:25:34;;;;;;;7.53;6.75;;;;;;;;;;2098955;28;20033;-71
2022/10/23 03:26:53;;;;;;;8.93;7.03;;;;;;;;;;2101031;28;20423;-71
2022/10/23 03:28:12;;;;;;;6.82;6.32;;;;;;;;;;2098814;28;20040;-73
2022/10/23 03:29:31;;;;;;;7.50;6.80;;;;;;;;;;2100130;28;20580;-72
2022/10/23 03:30:50;;;;;;;7.65;6.82;;;;;;;;;;2098763;28;20032;-71
2022/10/23 03:32:09;;;;;;;8.20;7.32;;;;;;;;;;2098430;28;20029;-72
2022/10/23 03:33:29;;;;;;;6.55;6.00;;;;;;;;;;2108740;28;20508;-71
2022/10/23 03:34:48;;;;;;;8.63;7.82;;;;;;;;;;2100441;28;20020;-71
2022/10/23 03:36:07;;;;;;;7.72;7.00;;;;;;;;;;2098258;28;20062;-72
2022/10/23 03:37:26;;;;;;;7.72;6.95;;;;;;;;;;2099246;28;20397;-71
2022/10/23 03:38:45;;;;;;;7.05;6.45;;;;;;;;;;2101229;28;20032;-72
2022/10/23 03:40:04;;;;;;;7.88;7.18;;;;;;;;;;2098469;28;20036;-71
2022/10/23 03:41:23;;;;;;;8.60;7.40;;;;;;;;;;2100948;28;20025;-71
2022/10/23 03:42:42;;;;;;;9.02;6.43;;;;;;;;;;2098828;28;20119;-71
2022/10/23 03:44:01;;;;;;;7.95;6.80;;;;;;;;;;2097680;28;20032;-71
2022/10/23 03:45:20;;;;;;;7.68;6.93;;;;;;;;;;2094956;28;20402;-71
2022/10/23 03:46:39;;;;;;;7.25;6.63;;;;;;;;;;2097626;28;20037;-71
2022/10/23 03:47:58;;;;;;;10.38;7.35;;;;;;;;;;2099438;28;20108;-70
2022/10/23 03:49:17;;;;;;;6.95;6.35;;;;;;;;;;2100187;28;20032;-71
2022/10/23 03:50:37;;;;;;;7.85;7.15;;;;;;;;;;2097045;28;20028;-71
2022/10/23 03:51:56;;;;;;;7.57;6.97;;;;;;;;;;2095470;28;20024;-71
2022/10/23 03:53:14;;;;;;;7.35;6.65;;;;;;;;;;2104786;28;20031;-71
2022/10/23 03:54:33;;;;;;;7.85;7.05;;;;;;;;;;2103651;28;20032;-71
2022/10/23 03:55:52;;;;;;;8.05;7.28;;;;;;;;;;2097953;28;20036;-71
2022/10/23 03:57:11;;;;;;;8.68;7.28;;;;;;;;;;2099669;28;20103;-72
2022/10/23 03:58:30;;;;;;;7.68;6.90;;;;;;;;;;2098600;28;20028;-71
2022/10/23 03:59:49;;;;;;;7.72;7.13;;;;;;;;;;2098468;28;20032;-70
2022/10/23 04:01:08;;;;;;;10.32;7.50;;;;;;;;;;2100634;28;20036;-70
2022/10/23 04:02:27;;;;;;;12.43;8.23;;;;;;;;;;2098591;28;20032;-72
2022/10/23 04:03:46;;;;;;;9.68;7.70;;;;;;;;;;2097866;28;20564;-74
2022/10/23 04:05:05;;;;;;;9.48;7.20;;;;;;;;;;2101015;28;20024;-71
2022/10/23 04:06:23;;;;;;;7.63;6.97;;;;;;;;;;2100014;28;20028;-71
2022/10/23 04:07:42;;;;;;;8.02;7.32;;;;;;;;;;2099718;28;20024;-74
2022/10/23 04:09:02;;;;;;;8.35;7.65;;;;;;;;;;2099743;28;20107;-71
2022/10/23 04:10:21;;;;;;;8.05;7.35;;;;;;;;;;2096751;28;20121;-71
2022/10/23 04:11:40;;;;;;;8.20;7.40;;;;;;;;;;2098891;28;20025;-71
2022/10/23 04:12:59;;;;;;;8.35;7.55;;;;;;;;;;2100117;28;20029;-71
2022/10/23 04:14:17;;;;;;;8.55;7.32;;;;;;;;;;2099413;28;20035;-71
2022/10/23 04:15:36;;;;;;;9.18;7.95;;;;;;;;;;2097306;28;20497;-71
2022/10/23 04:16:55;;;;;;;7.93;7.22;;;;;;;;;;2099263;28;20035;-71
2022/10/23 04:18:15;;;;;;;8.98;7.68;;;;;;;;;;2097235;28;20024;-71
2022/10/23 04:19:34;;;;;;;9.18;7.25;;;;;;;;;;2105319;28;20022;-71
2022/10/23 04:20:53;;;;;;;8.25;7.30;;;;;;;;;;2103453;28;20029;-71
2022/10/23 04:22:12;;;;;;;8.55;7.75;;;;;;;;;;2099602;28;20032;-71
2022/10/23 04:23:30;;;;;;;8.13;7.43;;;;;;;;;;2100070;28;20373;-72
2022/10/23 04:24:49;;;;;;;9.55;7.25;;;;;;;;;;2098948;28;20017;-71
2022/10/23 04:26:08;;;;;;;8.93;8.02;;;;;;;;;;2097712;28;20389;-72
2022/10/23 04:27:27;;;;;;;8.23;7.43;;;;;;;;;;2099007;28;20098;-72
2022/10/23 04:28:46;;;;;;;8.05;7.25;;;;;;;;;;2100464;28;20452;-72
2022/10/23 04:30:05;;;;;;;8.65;7.65;;;;;;;;;;2095641;28;20025;-73
2022/10/23 04:31:23;;;;;;;8.50;7.30;;;;;;;;;;2097353;28;20036;-71
2022/10/23 04:32:42;;;;;;;8.20;7.40;;;;;;;;;;2094660;28;20033;-71
2022/10/23 04:34:01;;;;;;;9.15;8.05;;;;;;;;;;2095573;28;20040;-74
2022/10/23 04:35:20;;;;;;;8.43;7.63;;;;;;;;;;2098758;28;20054;-70
2022/10/23 04:36:39;;;;;;;8.10;7.20;;;;;;;;;;2099524;28;20405;-71
2022/10/23 04:37:58;;;;;;;8.18;7.43;;;;;;;;;;2098505;28;20036;-71
2022/10/23 04:39:17;;;;;;;9.10;7.82;;;;;;;;;;2097128;28;20036;-71
2022/10/23 04:40:36;;;;;;;8.13;7.38;;;;;;;;;;2099001;28;20138;-72
2022/10/23 04:41:56;;;;;;;8.75;7.90;;;;;;;;;;2099335;28;20044;-71
2022/10/23 04:43:14;;;;;;;8.57;7.78;;;;;;;;;;2097723;28;20044;-72
2022/10/23 04:44:33;;;;;;;11.32;7.43;;;;;;;;;;2098594;28;20115;-72
2022/10/23 04:45:52;;;;;;;9.48;7.95;;;;;;;;;;2097971;28;20032;-72
2022/10/23 04:47:11;;;;;;;7.82;6.90;;;;;;;;;;2100253;28;20025;-72
2022/10/23 04:48:30;;;;;;;9.65;7.57;;;;;;;;;;2098807;28;20489;-72
2022/10/23 04:49:49;;;;;;;7.80;7.10;;;;;;;;;;2099141;28;20516;-73
2022/10/23 04:51:08;;;;;;;8.57;7.65;;;;;;;;;;2098988;28;20032;-72
2022/10/23 04:52:27;;;;;;;8.25;7.50;;;;;;;;;;2098058;28;20028;-72
2022/10/23 04:53:46;;;;;;;7.95;7.25;;;;;;;;;;2097272;28;20062;-72
2022/10/23 04:55:06;;;;;;;8.57;7.85;;;;;;;;;;2099970;28;20611;-72
2022/10/23 04:56:25;;;;;;;8.95;7.85;;;;;;;;;;2098599;28;20284;-72
2022/10/23 04:57:44;;;;;;;9.80;8.00;;;;;;;;;;2098803;28;20033;-73
2022/10/23 04:59:03;;;;;;;9.23;8.20;;;;;;;;;;2099143;28;21095;-72
2022/10/23 05:00:22;;;;;;;8.95;8.07;;;;;;;;;;2091669;28;20123;-73
2022/10/23 05:01:40;;;;;;;9.45;8.38;;;;;;;;;;2097946;28;20111;-72
2022/10/23 05:02:59;;;;;;;9.52;8.10;;;;;;;;;;2099403;28;20051;-72
2022/10/23 05:04:18;;;;;;;8.98;8.07;;;;;;;;;;2098605;28;20486;-72
2022/10/23 05:05:37;;;;;;;9.23;7.78;;;;;;;;;;2097199;28;20060;-72
2022/10/23 05:06:56;;;;;;;9.20;8.30;;;;;;;;;;2097870;28;20489;-73
2022/10/23 05:08:15;;;;;;;8.43;7.68;;;;;;;;;;2095228;28;20032;-73
2022/10/23 05:09:34;;;;;;;8.68;7.72;;;;;;;;;;2098693;28;20033;-72
2022/10/23 05:10:53;;;;;;;9.60;8.35;;;;;;;;;;2099327;28;20029;-72
2022/10/23 05:12:12;;;;;;;9.90;8.60;;;;;;;;;;2098624;28;20045;-74
2022/10/23 05:13:31;;;;;;;9.30;8.30;;;;;;;;;;2099840;28;20115;-72
2022/10/23 05:14:50;;;;;;;9.45;8.55;;;;;;;;;;2098717;28;20036;-72
2022/10/23 05:16:10;;;;;;;10.77;8.18;;;;;;;;;;2105232;28;20028;-72
2022/10/23 05:17:33;;;;;;;9.60;8.38;;;;;;;;;;2103657;28;20391;-72
2022/10/23 05:18:52;;;;;;;9.30;8.40;;;;;;;;;;2097740;28;20036;-71
2022/10/23 05:20:14;;;;;;;9.07;7.93;;;;;;;;;;2099190;28;20056;-72
2022/10/23 05:21:34;;;;;;;8.18;7.38;;;;;;;;;;2098858;28;20412;-72
2022/10/23 05:22:54;;;;;;;9.20;8.30;;;;;;;;;;2098773;28;20421;-74
2022/10/23 05:24:13;;;;;;;8.52;7.72;;;;;;;;;;2098810;28;20028;-73
2022/10/23 05:25:32;;;;;;;9.75;8.18;;;;;;;;;;2100548;28;20029;-73
2022/10/23 05:26:51;;;;;;;8.40;7.22;;;;;;;;;;2098029;28;20037;-72
2022/10/23 05:28:10;;;;;;;9.38;7.97;;;;;;;;;;2099621;28;20104;-74
2022/10/23 05:29:29;;;;;;;9.55;8.63;;;;;;;;;;2099240;28;20058;-74
2022/10/23 05:30:48;;;;;;;10.40;7.78;;;;;;;;;;2098537;28;20036;-74
2022/10/23 05:32:08;;;;;;;10.27;8.07;;;;;;;;;;2098848;28;20508;-73
2022/10/23 05:33:28;;;;;;;8.15;7.35;;;;;;;;;;2099203;28;20028;-73
2022/10/23 05:34:47;;;;;;;8.35;7.65;;;;;;;;;;2096574;28;20037;-73
2022/10/23 05:36:07;;;;;;;9.05;8.15;;;;;;;;;;2100710;28;20025;-73
2022/10/23 05:37:26;;;;;;;9.07;7.78;;;;;;;;;;2098437;28;20892;-73
2022/10/23 05:38:45;;;;;;;9.80;8.70;;;;;;;;;;2096563;28;20033;-73
2022/10/23 05:40:04;;;;;;;8.55;7.75;;;;;;;;;;2099051;28;20096;-74
2022/10/23 05:41:23;;;;;;;8.77;7.90;;;;;;;;;;2099545;28;20108;-73
2022/10/23 05:42:42;;;;;;;9.07;8.18;;;;;;;;;;2098547;28;20040;-72
2022/10/23 05:44:01;;;;;;;10.55;8.68;;;;;;;;;;2099101;28;20428;-73
2022/10/23 05:45:20;;;;;;;10.15;8.95;;;;;;;;;;2092132;28;20115;-75
2022/10/23 05:46:42;;;;;;;8.95;8.13;;;;;;;;;;2100000;28;20024;-73
2022/10/23 05:48:00;;;;;;;9.65;8.60;;;;;;;;;;2100504;28;20028;-74
2022/10/23 05:49:19;;;;;;;8.98;8.07;;;;;;;;;;2100402;28;20080;-73
2022/10/23 05:50:39;;;;;;;12.30;8.68;;;;;;;;;;2098785;28;20021;-72
2022/10/23 05:51:57;;;;;;;9.35;8.48;;;;;;;;;;2097661;28;20028;-74
2022/10/23 05:53:16;;;;;;;9.18;7.68;;;;;;;;;;2098010;28;20032;-76
2022/10/23 05:54:35;;;;;;;9.57;8.65;;;;;;;;;;2092694;28;20041;-74
2022/10/23 05:55:54;;;;;;;10.57;8.43;;;;;;;;;;2101787;28;20127;-73
2022/10/23 05:57:13;;;;;;;9.90;8.30;;;;;;;;;;2098591;28;20447;-72
2022/10/23 05:58:32;;;;;;;8.85;8.05;;;;;;;;;;2100172;28;20413;-74
2022/10/23 05:59:52;;;;;;;10.43;8.63;;;;;;;;;;2099977;28;20036;-73
2022/10/23 06:01:12;;;;;;;10.25;9.10;;;;;;;;;;2103476;28;20650;-73
2022/10/23 06:02:31;;;;;;;8.77;7.88;;;;;;;;;;2102785;28;20019;-74
2022/10/23 06:03:50;;;;;;;9.80;8.77;;;;;;;;;;2098118;28;20024;-73
2022/10/23 06:05:09;;;;;;;9.35;8.35;;;;;;;;;;2101615;28;20029;-72
2022/10/23 06:06:28;;;;;;;9.57;8.73;;;;;;;;;;2101411;28;20044;-73
2022/10/23 06:07:47;;;;;;;11.40;8.80;;;;;;;;;;2099106;28;20020;-72
2022/10/23 06:09:06;;;;;;;12.13;9.05;;;;;;;;;;2098961;28;20033;-73
2022/10/23 06:10:25;;;;;;;10.52;9.38;;;;;;;;;;2101277;28;20028;-74
2022/10/23 06:11:44;;;;;;;10.55;9.18;;;;;;;;;;2101442;28;20020;-73
2022/10/23 06:13:03;;;;;;;9.80;8.85;;;;;;;;;;2100526;28;20036;-73
2022/10/23 06:14:22;;;;;;;9.75;8.68;;;;;;;;;;2098014;28;20029;-73
2022/10/23 06:15:41;;;;;;;9.43;8.52;;;;;;;;;;2096732;28;20036;-74
2022/10/23 06:17:00;;;;;;;10.75;8.45;;;;;;;;;;2101332;28;20024;-72
2022/10/23 06:18:19;;;;;;;9.73;8.55;;;;;;;;;;2101095;28;20071;-72
2022/10/23 06:19:38;;;;;;;9.40;8.43;;;;;;;;;;2100045;28;20473;-73
2022/10/23 06:20:58;;;;;;;10.48;8.50;;;;;;;;;;2100745;28;20481;-72
2022/10/23 06:22:17;;;;;;;8.98;8.07;;;;;;;;;;2101625;28;20036;-76
2022/10/23 06:23:37;;;;;;;8.93;7.22;;;;;;;;;;2099521;28;20036;-76
2022/10/23 06:24:56;;;;;;;8.57;7.78;;;;;;;;;;2096626;28;20047;-74
2022/10/23 06:26:16;;;;;;;10.57;8.50;;;;;;;;;;2097134;28;20156;-74
2022/10/23 06:27:35;;;;;;;9.02;8.15;;;;;;;;;;2097181;28;20032;-75
2022/10/23 06:28:54;;;;;;;9.40;8.40;;;;;;;;;;2100495;28;20082;-77
2022/10/23 06:30:13;;;;;;;10.30;9.07;;;;;;;;;;2095745;28;20032;-75
2022/10/23 06:31:32;;;;;;;10.23;8.20;;;;;;;;;;2097924;28;20028;-74
2022/10/23 06:32:53;;;;;;;9.07;8.02;;;;;;;;;;2100026;28;20048;-73
2022/10/23 06:34:12;;;;;;;9.70;8.65;;;;;;;;;;2101657;28;20036;-74
2022/10/23 06:35:31;;;;;;;9.95;8.93;;;;;;;;;;2099987;28;20112;-76
2022/10/23 06:36:50;;;;;;;9.80;8.80;;;;;;;;;;2099586;28;20604;-74
2022/10/23 06:38:09;;;;;;;10.07;9.07;;;;;;;;;;2098311;28;20474;-74
2022/10/23 06:39:28;;;;;;;9.80;8.30;;;;;;;;;;2101415;28;20024;-73
